Create Custom Reports and Graphics: Custom Report

Stanford Met Tower

Current Conditions

11/27/20 8:45 PM (-08:00)
Updated Every 15 Minutes
Temp 42.0 °F   0.1
WindChill 38.8 °F
RH 66 %   0
Dew Pt 31.4 °F   0.1
Wind Dir SSW | 205 °
Wind Spd 5.0 mph   1.7
Wind Gust 7.9 mph   2.4
NowCast AQI Value 10 AQI   1
NowCast AQI Status Good
Daily Min Temp 32.7 °F   1.1
Daily Max Temp 64.7 °F   1.3
Daily Max Wind 10.6 mph   9.6
Yesterday’s Min Temp 33.7 °F
Yesterday's Max Temp 63.4 °F
Yesterday's Max Wind 20.2 mph
Seasonal Rainfall 0.59 In

Last 48 Hours

Stanford Met Tower

Hourly Data | America/Los_Angeles
as of 11/27/20 9:06 PM PST
Date & Time Temp (°F) WindChill (°F) RH (%) Dew Pt (°F) Wind Dir (°) Wind Spd (mph) Wind Gust (mph) Solar Rad (W/m2) Pressure (mb) (mb) NowCast AQI Value (AQI) NowCast AQI Status Latest Rain (In) Daily Rain (In) Daily Min Temp (°F) Daily Max Temp (°F)
11/27/20 - 2000 43.7 41.7 61 31.0 SW | 216 4.0 7.8 0 1,026.1 10 Good 0.00 0.00 32.7 64.7
11/27/20 - 1900 46.3 43.3 57 31.9 SSW | 202 5.9 9.5 0 1,025.6 9 Good 0.00 0.00 32.7 64.7
11/27/20 - 1800 48.2 47.3 53 31.8 SW | 217 3.4 6.0 0 1,025.0 6 Good 0.00 0.00 32.7 64.7
11/27/20 - 1700 58.1 - 34 29.4 NW | 324 2.9 5.7 40 1,024.3 4 Good 0.00 0.00 32.7 64.7
11/27/20 - 1600 62.2 - 27 27.5 NNW | 342 1.9 4.9 198 1,024.0 4 Good 0.00 0.00 32.7 64.7
11/27/20 - 1500 62.4 - 27 28.2 NNW | 340 2.2 6.0 346 1,024.0 4 Good 0.00 0.00 32.7 64.7
11/27/20 - 1400 62.4 - 29 30.0 N | 354 4.1 8.9 459 1,024.2 4 Good 0.00 0.00 32.7 64.7
11/27/20 - 1300 63.0 - 26 27.8 NNE | 32 2.2 8.2 522 1,024.7 3 Good 0.00 0.00 32.7 64.7
11/27/20 - 1200 60.8 - 27 26.4 N | 352 1.1 4.7 526 1,025.8 4 Good 0.00 0.00 32.7 63.1
11/27/20 - 1100 59.4 - 29 26.9 E | 95 2.3 5.6 470 1,026.8 4 Good 0.00 0.00 32.7 60.9
11/27/20 - 1000 54.6 - 42 31.5 ESE | 110 1.6 4.6 360 1,027.3 4 Good 0.00 0.00 32.7 59.2
11/27/20 - 0900 42.6 40.3 63 30.7 SSW | 206 4.1 9.5 126 1,027.3 5 Good 0.00 0.00 32.7 49.0
11/27/20 - 0800 34.8 30.3 75 27.7 SSW | 208 5.0 8.6 16 1,027.0 4 Good 0.00 0.00 32.7 40.1
11/27/20 - 0700 34.5 28.4 75 27.2 SSW | 201 7.0 9.8 1 1,026.6 4 Good 0.00 0.00 32.7 40.1
11/27/20 - 0600 34.3 28.5 76 27.4 SSW | 202 6.6 9.7 0 1,026.3 5 Good 0.00 0.00 32.8 40.1
11/27/20 - 0500 35.6 29.8 73 27.8 SSW | 200 7.1 10.6 0 1,026.1 5 Good 0.00 0.00 33.8 40.1
11/27/20 - 0400 35.3 30.2 75 28.3 SSW | 208 5.9 9.5 0 1,026.3 6 Good 0.00 0.00 33.8 40.1
11/27/20 - 0300 37.6 33.0 70 28.6 SSW | 208 5.9 9.6 0 1,026.2 7 Good 0.00 0.00 35.2 40.1
11/27/20 - 0200 36.9 32.2 73 29.0 SSW | 207 5.9 10.6 0 1,026.1 8 Good 0.00 0.00 35.2 40.1
11/27/20 - 0100 37.3 32.5 73 29.5 SSW | 200 6.1 10.2 0 1,025.9 10 Good 0.00 0.00 35.2 40.1
11/27/20 - 0000 39.5 34.6 68 29.9 SSW | 201 6.8 10.8 0 1,025.7 10 Good 0.00 0.00 33.7 63.4
11/26/20 - 2300 40.8 36.8 66 30.4 SSW | 203 5.9 10.2 0 1,025.6 11 Good 0.00 0.00 33.7 63.4
11/26/20 - 2200 39.9 36.4 71 31.2 SSW | 210 4.8 10.1 0 1,025.5 13 Good 0.00 0.00 33.7 63.4
11/26/20 - 2100 42.1 38.7 66 31.4 SSW | 205 5.3 9.5 0 1,025.4 11 Good 0.00 0.00 33.7 63.4
11/26/20 - 2000 43.8 40.0 61 31.3 SSW | 197 6.5 10.4 0 1,025.2 9 Good 0.00 0.00 33.7 63.4
11/26/20 - 1900 45.1 43.8 59 31.4 SSW | 208 3.3 8.5 0 1,024.8 7 Good 0.00 0.00 33.7 63.4
11/26/20 - 1800 50.8 - 47 31.1 SW | 226 2.1 6.5 0 1,024.5 4 Good 0.00 0.00 33.7 63.4
11/26/20 - 1700 59.5 - 32 29.8 NNE | 14 6.5 14.5 40 1,024.1 4 Good 0.00 0.00 33.7 63.4
11/26/20 - 1600 61.8 - 29 29.1 N | 7 6.7 17.2 197 1,024.0 4 Good 0.00 0.00 33.7 63.4
11/26/20 - 1500 62.4 - 29 29.7 NNE | 15 9.8 20.2 344 1,023.9 3 Good 0.00 0.00 33.7 63.4
11/26/20 - 1400 62.3 - 29 29.6 NNE | 14 10.2 19.1 461 1,024.0 4 Good 0.00 0.00 33.7 63.4
11/26/20 - 1300 61.2 - 31 30.6 N | 4 8.3 18.5 523 1,024.4 4 Good 0.00 0.00 33.7 63.1
11/26/20 - 1200 58.9 - 37 32.3 NNW | 332 8.3 17.6 527 1,025.7 5 Good 0.00 0.00 33.7 60.6
11/26/20 - 1100 56.2 - 44 34.5 NW | 311 5.5 12.8 472 1,027.1 6 Good 0.00 0.00 33.7 58.2
11/26/20 - 1000 54.1 - 49 35.6 NW | 306 5.8 12.7 363 1,027.4 8 Good 0.00 0.00 33.7 55.8
11/26/20 - 0900 43.6 41.6 78 37.0 WSW | 244 3.9 6.9 127 1,027.5 11 Good 0.00 0.00 33.7 52.0
11/26/20 - 0800 35.5 31.6 92 33.4 SW | 215 4.5 7.5 18 1,026.9 15 Good 0.00 0.00 33.7 39.2
11/26/20 - 0700 34.6 30.3 94 33.0 SSW | 213 4.7 8.1 1 1,026.4 17 Good 0.00 0.00 33.7 39.2
11/26/20 - 0600 35.5 31.0 93 33.7 SSW | 207 5.3 9.8 0 1,026.2 20 Good 0.00 0.00 34.6 39.2
11/26/20 - 0500 36.2 31.6 94 34.5 SSW | 210 5.4 11.7 0 1,026.1 20 Good 0.00 0.00 34.9 39.2
11/26/20 - 0400 36.3 32.3 94 34.8 SSW | 208 4.8 8.8 0 1,026.2 21 Good 0.00 0.00 34.9 39.2
11/26/20 - 0300 35.7 31.2 95 34.5 SW | 216 5.2 7.9 0 1,026.2 24 Good 0.00 0.00 34.9 39.2
11/26/20 - 0200 37.4 33.7 93 35.4 SSW | 207 4.6 7.7 0 1,026.0 25 Good 0.00 0.00 35.4 39.2
11/26/20 - 0100 38.1 35.4 92 36.0 SSW | 211 3.7 7.3 0 1,026.3 25 Good 0.00 0.00 37.3 39.2
11/26/20 - 0000 39.3 36.4 90 36.6 SW | 222 4.1 6.7 0 1,026.6 27 Good 0.00 0.00 38.6 61.0
11/25/20 - 2300 40.1 37.1 89 37.0 SW | 226 4.3 7.2 0 1,026.7 29 Good 0.00 0.00 38.7 61.0
11/25/20 - 2200 40.7 38.3 87 37.2 SW | 218 3.8 6.6 0 1,026.5 28 Good 0.00 0.00 38.7 61.0
11/25/20 - 2100 41.9 40.4 86 38.1 SSW | 211 3.1 6.0 0 1,026.3 30 Good 0.00 0.00 38.7 61.0
Max 63.0 47.3 95 38.1 - 10.2 20.2 527 1,027.5 30 - 0.00 0.00 38.7 64.7
Avg 46.3 35.5 62 31.4 - 5.0 9.6 128 1,025.8 11 - 0.00 - - -
Min 34.3 28.4 26 26.4 - 1.1 4.6 0 1,023.9 3 - 0.00 0.00 32.7 39.2
Total - - - - - - - - - - - 0.00 - - -

Last 30 Days

Stanford Met Tower

Daily Data | America/Los_Angeles
as of 11/27/20 9:06 PM PST
Date Daily Max Temp (°F) Time of Max Temp Daily Min Temp (°F) Time of Min Temp Daily Rain (In) Monthly Rain (In) Seasonal Rainfall (In) Daily Max Wind (mph) Time of Max Wind Max Wind Dir (°) Dew Pt (°F) Max RH (%) Min RH (%) Daily ETo (in) Daily Solar Rad (Cal/cm2) PM2.5 Daily Max (ug/m3) Time of Max PM2.5 Max Pressure (mb) (mb) Time of Max Press Min pressure (mb) (mb) Time of Min Press Max Temp Inversion (°F) Time of Max Temp Inversion Min Temp Inversion (°F) Time of Min Temp Inversion HDDs (°F) CDDs (°F) GDDs (DL) Seas GDDs (DL) Chilling <=45F (hrs) Chilling <=45F Seas (hrs) Daily Max Rain Intensity (In/Hr) Time of Max Rain Intensity Storm Total (In) Bat Volt Min Day (V)
11/26/20 63.4 1356 33.7 0606 0.00 0.44 0.59 20.2 1437 N | 1 32.5 97 26 0.053 264 6.7 0145 1,028.0 0853 1,024.0 1500 9.2 1735 -4.6 1249 0.0 0.0 3.3 - 14.0 194 - - - 12.4
11/25/20 61.0 1406 38.6 2359 0.00 0.44 0.59 17.5 1554 WNW | 293 41.5 100 46 0.054 261 9.0 1815 1,027.0 0910 1,024.0 0025 5.7 1913 -6.0 1205 0.0 0.0 2.6 - 12.6 180 - - - 12.3
11/24/20 67.1 1347 35.6 0710 0.00 0.44 0.59 9.6 1316 NE | 38 41.2 100 35 0.056 263 10.8 2115 1,025.0 2317 1,020.0 1503 5.5 1756 -5.9 1254 0.0 0.1 4.2 - 11.4 167 - - - 12.4
11/23/20 61.5 1417 40.7 2310 0.00 0.44 0.59 9.5 1448 NNE | 21 45.4 99 63 0.041 191 6.3 0000 1,021.0 0913 1,019.0 1354 4.3 1739 -6.5 1252 0.0 0.0 2.6 - 5.7 156 - - - 12.4
11/22/20 62.8 1321 31.8 0639 0.00 0.44 0.59 11.3 1148 NNW | 344 39.2 96 48 0.053 249 11.8 1230 1,023.0 0118 1,017.0 1459 5.5 0102 -6.2 1312 0.0 0.0 2.6 - 14.3 150 - - - 12.4
11/21/20 64.9 1313 35.5 0346 0.00 0.44 0.59 9.8 0336 SSW | 193 34.4 90 30 0.047 231 6.2 2015 1,027.0 0811 1,022.0 1618 6.4 2050 -6.8 1319 0.0 0.0 3.5 - 12.6 136 - - - 12.4
11/20/20 64.9 1352 37.5 0608 0.00 0.44 0.59 12.7 1332 N | 355 37.2 96 31 0.053 254 4.5 0830 1,029.0 0828 1,024.0 1527 6.4 1650 -6.2 1242 0.0 0.0 3.6 - 12.7 123 - - - 12.3
11/19/20 61.8 1410 41.6 0656 0.00 0.44 0.59 12.0 1640 N | 352 45.4 100 53 0.049 235 7.3 1030 1,030.0 0830 1,025.0 1640 4.7 1835 -4.5 1131 0.0 0.0 3.0 - 10.3 110 - - - 12.4
11/18/20 64.3 1118 44.9 2359 0.09 0.44 0.59 18.3 1117 S | 191 54.0 100 70 0.034 147 10.5 2045 1,027.0 2357 1,016.0 0357 4.2 1840 -2.2 0905 0.0 0.0 7.5 - 0.0 100 0.05 0730 0.24 12.4
11/17/20 67.7 1110 47.4 0001 0.15 0.35 0.50 27.2 0838 S | 186 51.1 99 37 0.028 110 9.3 0300 1,017.0 2309 1,012.0 0411 15.4 0150 -3.9 1059 0.0 0.0 8.0 - 0.0 100 0.05 1349 0.15 12.4
11/16/20 72.0 1541 40.3 0626 0.00 0.20 0.35 10.2 2053 SSW | 193 45.0 99 40 0.065 284 9.3 0730 1,026.0 0001 1,013.0 2335 6.4 0332 -7.0 1237 0.0 1.0 6.1 - 8.0 100 - - - 12.3
11/15/20 66.6 1527 35.3 0543 0.00 0.20 0.35 9.7 1246 NW | 312 42.6 98 43 0.061 278 14.0 1000 1,030.0 0751 1,025.0 1711 4.4 1742 -6.6 1300 0.0 0.1 4.4 - 9.0 92 - - - 12.4
11/14/20 60.2 1452 38.8 0622 0.00 0.20 0.35 10.9 1323 NNW | 342 45.0 100 67 0.039 182 16.2 1115 1,029.0 2357 1,026.0 0017 3.6 0306 -6.1 1312 0.0 0.0 1.8 - 12.2 83 - - - 12.4
11/13/20 61.5 1133 36.4 0319 0.02 0.20 0.35 22.8 1705 SSW | 208 44.6 98 58 0.035 156 8.8 1045 1,026.0 2354 1,020.0 1601 4.9 2316 -5.4 1127 0.0 0.0 3.7 - 8.1 71 0.01 1638 0.02 12.4
11/12/20 61.8 1343 36.2 0612 0.00 0.18 0.33 16.8 1400 N | 349 40.8 97 49 0.061 288 13.8 0915 1,023.0 2206 1,019.0 1239 5.1 1737 -7.4 1237 0.0 0.0 3.0 - 12.6 63 - - - 12.3
11/11/20 60.5 1342 41.9 2355 0.00 0.18 0.33 9.5 1549 N | 0 46.1 97 61 0.037 163 9.5 0830 1,023.0 0609 1,019.0 1401 3.6 0238 -4.8 1343 0.0 0.0 3.4 - 1.4 50 - - - 12.4
11/10/20 63.8 1330 31.1 0626 0.00 0.18 0.33 9.7 1316 NNE | 30 35.0 91 26 0.058 275 6.5 1745 1,029.0 0219 1,022.0 2352 5.3 0216 -7.3 1153 0.0 0.0 4.6 - 8.5 49 - - - 12.4
11/9/20 59.2 1312 29.6 0654 0.00 0.18 0.33 13.3 1439 N | 4 28.2 89 25 0.057 292 7.3 2045 1,028.0 2251 1,019.0 0001 6.3 0631 -7.7 1219 0.0 0.0 1.8 - 14.7 41 - - - 12.4
11/8/20 55.9 1045 34.9 2359 0.00 0.18 0.33 34.4 0846 NNW | 331 37.7 88 46 0.045 221 19.0 0015 1,019.0 2359 1,011.0 0028 3.3 1824 -4.6 1139 0.0 0.0 1.7 - 6.5 26 - - - 12.4
11/7/20 61.5 1505 43.4 0729 0.17 0.18 0.33 25.0 2337 WNW | 297 43.4 99 42 0.060 282 54.8 1145 1,011.0 1825 1,007.0 0101 3.5 0717 -6.6 1315 0.0 0.0 2.9 - 1.1 19 0.07 0139 0.18 12.3
11/6/20 64.3 0037 46.3 2134 0.01 0.01 0.16 27.0 1310 WSW | 255 45.2 97 46 0.052 236 9.0 0615 1,014.0 0812 1,008.0 2356 3.1 2109 -6.2 1230 0.0 0.0 5.8 - 0.0 18 0.01 2153 0.01 12.4
11/5/20 80.1 1537 48.1 0340 0.00 0.00 0.15 14.6 2358 WNW | 287 53.0 100 37 0.076 303 21.0 0815 1,025.0 0508 1,014.0 2359 7.2 2339 -7.2 1312 0.0 3.2 11.2 - 0.0 18 - - - 12.2
11/4/20 75.6 1437 42.7 0408 0.00 0.00 0.15 13.4 1333 N | 354 51.4 97 53 0.074 299 12.0 0745 1,027.0 0850 1,023.0 1444 5.9 1859 -7.0 1122 0.0 2.1 9.3 - 5.4 18 - - - 12.3
11/3/20 77.3 1335 40.9 0644 0.00 0.00 0.15 12.1 1402 N | 349 48.8 96 12 0.065 312 24.5 0744 1,024.0 2349 1,018.0 1337 5.3 0654 -7.4 1210 0.0 1.3 6.7 - 6.2 13 - - - 12.3
11/2/20 79.7 1321 43.4 0640 0.00 0.00 0.15 8.6 0101 SSW | 196 48.6 89 27 0.073 305 15.0 2359 1,023.0 0740 1,017.0 1634 6.9 2140 -7.5 1200 0.0 3.4 10.2 - 1.9 7 - - - 12.2
11/1/20 79.9 1312 42.2 0608 0.00 0.00 0.15 9.4 1919 SSW | 195 45.4 89 33 0.074 298 0.0 1200 1,024.0 0815 1,020.0 1527 6.4 1733 -7.3 1321 0.0 2.9 9.6 - 4.8 5 - - - 12.3
10/31/20 76.8 1637 40.6 0444 0.00 0.00 0.15 10.1 0733 S | 188 44.7 92 32 0.080 328 0.0 1300 1,023.0 0859 1,019.0 1536 7.1 1908 -7.9 1333 0.0 2.4 8.6 3,143 7.6 0 - - - 12.3
10/30/20 71.6 1618 41.0 0721 0.00 0.00 0.15 10.5 1351 N | 8 45.7 90 43 0.078 329 0.0 1300 1,022.0 0858 1,017.0 1719 6.3 2006 -8.6 1337 0.0 1.1 6.8 3,135 6.5 0 - - - 12.3
10/29/20 75.9 1550 39.7 0706 0.00 0.00 0.15 8.6 0132 SSW | 200 42.4 85 24 0.063 329 0.0 1300 1,022.0 0921 1,016.0 1556 6.5 1844 -8.0 1325 0.0 2.2 8.2 3,128 6.4 0 - - - 12.3
10/28/20 76.1 1418 39.8 0701 0.00 - 0.15 8.8 1536 N | 4 39.1 78 23 0.075 340 - - 1,022.0 0941 1,018.0 1602 7.9 1829 -7.6 1410 0.0 1.5 9.2 3,118 0.3 0 - - - 12.3
Max 80.1 - 48.1 - 0.17 0.44 - 34.4 - - 54.0 100 70 0.080 340 54.8 - 1,030.0 - 1,026.0 - 15.4 - -2.2 - 0.0 3.4 11.2 - 14.7 - 0.07 - 0.24 12.4
Avg - - - - - 0.21 - - - - 43.2 - - - - - - 1,024.1 - 1,018.5 - - - - - - - 5.3 - 7.2 - - - 0.12 -
Min 55.9 - 29.6 - 0.00 0.00 - 8.6 - - 28.2 78 12 0.028 110 0.0 - 1,011.0 - 1,007.0 - 3.1 - -8.6 - 0.0 0.0 1.7 - 0.0 - 0.01 - 0.01 12.2
Total - - - - - - - - - - - - - - - - - - - - - - - - - - - 160.1 - 214.5 - - - - -
Calm: 0.0%
Calm: 0.0%

Climate Summary

Stanford Met Tower

Current Year | Showing 1/1/20 - 11/26/20
as of 11/27/20 9:06 PM PST
Temperature (°F) Precip (in) Days
Month Days Avg Max Avg Min Max Max Min Min Total Daily Min Temp < 32 Daily Min Temp < 40 Daily Max Temp > 90 Daily Max Temp > 100 Daily Rain > 0.01 Daily Rain > 0.1
Jan 2020 31 60.2 38.4 84.2 32.1 0.94 0 21 0 0 5 1
Feb 2020 29 66.4 37.1 77.7 29.2 0 3 24 0 0 0 0
Mar 2020 31 63 41.7 78.5 33.1 1.63 0 10 0 0 10 5
Apr 2020 30 69.6 44.4 85.5 34.1 0.94 0 6 0 0 3 3
May 2020 31 77.2 48.2 96.7 37.8 0.21 0 1 4 0 2 1
Jun 2020 30 79.7 52.9 95.6 44.5 0 0 0 5 0 0 0
Jul 2020 31 80.3 54.1 93.1 47.9 0 0 0 1 0 0 0
Aug 2020 31 83.6 57.8 101.6 51 0.13 0 0 7 1 1 1
Sep 2020 30 82.5 54.8 107.5 50.1 0.02 0 0 5 2 1 0
Oct 2020 31 81.4 49 95.1 39.7 0 0 2 7 0 0 0
Nov 2020 26 66.1 39.2 80.1 29.6 0.44 3 13 0 0 4 2
Total 331 - - - - 4.31 6 77 29 3 26 13
Average 30.1 73.6 47.1 - - 0.39 0.5 7 2.6 0.3 2.4 1.2
Maximum 31 83.6 57.8 107.5 - 1.63 3 24 7 2 10 5
Minimum 26 60.2 37.1 - 29.2 0 0 0 0 0 0 0

Climate Summary

Stanford Met Tower

Last Year | Showing 1/1/19 - 12/31/19
as of 11/27/20 9:06 PM PST
Temperature (°F) Precip (in) Days
Month Days Avg Max Avg Min Max Max Min Min Total Daily Min Temp < 32 Daily Min Temp < 40 Daily Max Temp > 90 Daily Max Temp > 100 Daily Rain > 0.01 Daily Rain > 0.1
Jan 2019 31 63.1 41.1 71.2 27.4 3.99 4 12 0 0 11 7
Feb 2019 28 58.4 38.8 65.5 29 5.91 6 15 0 0 16 14
Mar 2019 31 66.3 41 80.5 33.2 3.19 0 14 0 0 15 9
Apr 2019 30 75.2 46 93.4 39.3 0.15 0 1 2 0 3 0
May 2019 31 73.5 48.5 83.6 41.5 1.29 0 0 0 0 6 4
Jun 2019 30 85.7 53 104.7 43.6 0 0 0 6 2 0 0
Jul 2019 31 86.2 53.6 95.7 48.1 0 0 0 3 0 0 0
Aug 2019 31 88.9 54.4 102.6 50.3 0 0 0 10 2 0 0
Sep 2019 30 83.6 51.8 100.3 42.5 0.06 0 0 6 1 1 0
Oct 2019 28 76.2 43.2 89 34.4 0 0 8 0 0 0 0
Nov 2019 30 66.8 39.4 78.3 31 0 2 15 0 0 0 0
Dec 2019 31 59.9 43.6 68.1 30 0.95 2 12 0 0 6 3
Total 362 - - - - 15.54 14 77 27 5 58 37
Average 30.2 73.6 46.2 - - 1.29 1.2 6.4 2.2 0.4 4.8 3.1
Maximum 31 88.9 54.4 104.7 - 5.91 6 15 10 2 16 14
Minimum 28 58.4 38.8 - 27.4 0 0 0 0 0 0 0

Climate Summary 2018

Stanford Met Tower

1/1/2018 - 12/31/2018 | Showing 1/1/18 - 12/31/18
as of 11/27/20 9:06 PM PST
Temperature (°F) Precip (in) Days
Month Days Avg Max Avg Min Max Max Min Min Total Daily Min Temp < 32 Daily Min Temp < 40 Daily Max Temp > 90 Daily Max Temp > 100 Daily Rain > 0.01 Daily Rain > 0.1
Jan 2018 31 64.1 41.9 74 33.4 3.42 0 13 0 0 9 5
Feb 2018 28 69.4 36.9 83.9 26.6 0.33 6 17 0 0 2 1
Mar 2018 31 68.7 41.1 87 32.2 3.53 0 14 0 0 13 10
Apr 2018 30 73.2 43.4 85.7 36 1.38 0 6 0 0 7 3
May 2018 31 75.3 47.2 95.5 40.8 0 0 0 1 0 0 0
Jun 2018 30 84.1 49.6 101.9 42.5 0 0 0 8 1 0 0
Jul 2018 31 85.4 55.9 96.9 51.5 0.02 0 0 6 0 0 0
Aug 2018 31 84.4 53.5 94.5 47.9 0 0 0 7 0 0 0
Sep 2018 28 83.2 48.8 95.7 42.6 0 0 0 3 0 0 0
Oct 2018 31 79.9 46.7 88.1 39.6 0.05 0 1 0 0 2 0
Nov 2018 30 70.8 40.8 86.5 31.5 1.95 1 15 0 0 6 4
Dec 2018 31 61.7 39.4 67.1 31.1 1.44 1 20 0 0 7 5
Total 363 - - - - 12.12 8 86 25 1 46 28
Average 30.2 75 45.4 - - 1.01 0.7 7.2 2.1 0.1 3.8 2.3
Maximum 31 85.4 55.9 101.9 - 3.53 6 20 8 1 13 10
Minimum 28 61.7 36.9 - 26.6 0 0 0 0 0 0 0

Climate Summary 2017

Stanford Met Tower

1/1/2017 - 12/31/2017 | Showing 1/1/17 - 12/31/17
as of 11/27/20 9:06 PM PST
Temperature (°F) Precip (in) Days
Month Days Avg Max Avg Min Max Max Min Min Total Daily Min Temp < 32 Daily Min Temp < 40 Daily Max Temp > 90 Daily Max Temp > 100 Daily Rain > 0.01 Daily Rain > 0.1
Jan 2017 31 59.2 38.6 67.9 27.2 10.05 5 17 0 0 17 13
Feb 2017 28 63.5 44.2 72.8 31.9 8.52 1 10 0 0 14 12
Mar 2017 31 71.7 43.2 84.4 33 2.7 0 7 0 0 8 7
Apr 2017 30 73.7 44.7 86.2 36.3 2.08 0 5 0 0 9 6
May 2017 31 79.6 48.3 96 41 0.01 0 0 6 0 0 0
Jun 2017 30 84.1 52.1 106.2 42.7 0.04 0 0 7 1 1 0
Jul 2017 31 88.3 53.9 103.6 47.6 0.01 0 0 8 3 0 0
Aug 2017 31 85 56.6 98.6 50.5 0 0 0 7 0 0 0
Sep 2017 30 87.4 54.8 110.8 43.7 0.06 0 0 10 2 1 0
Oct 2017 31 81.7 45.1 95.5 38.6 0.13 0 1 4 0 2 0
Nov 2017 30 68.5 44.8 75.4 35.9 2.67 0 6 0 0 8 4
Dec 2017 31 64.4 33.9 72.8 27.9 0.1 5 31 0 0 2 0
Total 365 - - - - 26.37 11 77 42 6 62 42
Average 30.4 75.6 46.7 - - 2.2 0.9 6.4 3.5 0.5 5.2 3.5
Maximum 31 88.3 56.6 110.8 - 10.05 5 31 10 3 17 13
Minimum 28 59.2 33.9 - 27.2 0 0 0 0 0 0 0